createdAt,value
2023-05-24T00:01:59.847Z,44.87
2023-05-24T00:04:30.321Z,44.78
2023-05-24T00:06:58.193Z,45.05
2023-05-24T00:09:24.712Z,45.14
2023-05-24T00:11:51.248Z,44.95
2023-05-24T00:14:17.781Z,44.94
2023-05-24T00:16:46.468Z,44.95
2023-05-24T00:19:18.515Z,44.95
2023-05-24T00:21:46.040Z,44.97
2023-05-24T00:24:12.667Z,44.98
2023-05-24T00:26:39.305Z,44.75
2023-05-24T00:29:06.056Z,44.80
2023-05-24T00:31:32.721Z,44.60
2023-05-24T00:33:59.330Z,44.15
2023-05-24T00:36:25.896Z,43.59
2023-05-24T00:38:53.637Z,43.71
2023-05-24T00:41:20.260Z,43.68
2023-05-24T00:43:46.777Z,43.53
2023-05-24T00:46:16.890Z,43.81
2023-05-24T00:48:44.836Z,43.75
2023-05-24T00:51:12.748Z,43.50
2023-05-24T00:53:40.391Z,43.81
2023-05-24T00:56:07.649Z,43.31
2023-05-24T00:58:34.492Z,43.43
2023-05-24T01:01:02.659Z,43.37
2023-05-24T01:03:29.975Z,43.54
2023-05-24T01:05:57.842Z,43.84
2023-05-24T01:08:46.106Z,43.60
2023-05-24T01:11:23.274Z,44.04
2023-05-24T01:13:59.184Z,44.04
2023-05-24T01:16:32.415Z,43.88
2023-05-24T01:19:03.440Z,43.95
2023-05-24T01:21:48.691Z,44.01
2023-05-24T01:24:18.218Z,44.32
2023-05-24T01:27:07.308Z,44.09
2023-05-24T01:29:35.111Z,44.29
2023-05-24T01:32:02.757Z,44.49
2023-05-24T01:34:29.857Z,44.33
2023-05-24T01:36:56.440Z,44.34
2023-05-24T01:39:25.424Z,44.49
2023-05-24T01:42:03.441Z,44.77
2023-05-24T01:44:35.192Z,44.59
2023-05-24T01:47:08.394Z,44.60
2023-05-24T01:49:38.857Z,44.78
2023-05-24T01:52:09.102Z,44.99
2023-05-24T01:54:38.165Z,44.96
2023-05-24T01:57:09.226Z,44.99
2023-05-24T01:59:36.621Z,44.85
2023-05-24T02:02:03.225Z,44.76
2023-05-24T02:04:29.953Z,44.88
2023-05-24T02:06:56.478Z,44.95
2023-05-24T02:09:23.030Z,45.39
2023-05-24T02:11:49.520Z,45.08
2023-05-24T02:14:17.390Z,44.97
2023-05-24T02:16:46.979Z,44.90
2023-05-24T02:19:14.321Z,44.75
2023-05-24T02:21:41.388Z,45.10
2023-05-24T02:24:08.051Z,45.10
2023-05-24T02:26:34.572Z,44.65
2023-05-24T02:29:01.062Z,44.77
2023-05-24T02:31:28.834Z,44.78
2023-05-24T02:33:56.241Z,44.75
2023-05-24T02:36:23.548Z,44.83
2023-05-24T02:38:51.084Z,44.93
2023-05-24T02:41:18.304Z,44.96
2023-05-24T02:43:46.041Z,44.77
2023-05-24T02:46:13.321Z,44.65
2023-05-24T02:48:40.234Z,44.81
2023-05-24T02:51:07.002Z,44.55
2023-05-24T02:53:33.621Z,44.42
2023-05-24T02:56:00.386Z,44.65
2023-05-24T02:58:30.393Z,44.92
2023-05-24T03:00:56.939Z,45.45
2023-05-24T03:03:23.571Z,45.82
2023-05-24T03:05:50.146Z,46.45
2023-05-24T03:08:16.820Z,46.47
2023-05-24T03:10:43.748Z,46.59
2023-05-24T03:13:10.738Z,46.77
2023-05-24T03:15:37.339Z,47.01
2023-05-24T03:18:04.088Z,47.27
2023-05-24T03:20:31.195Z,47.41
2023-05-24T03:22:57.899Z,47.56
2023-05-24T03:25:24.460Z,47.54
2023-05-24T03:27:50.991Z,47.94
2023-05-24T03:30:17.539Z,47.86
2023-05-24T03:32:44.142Z,47.60
2023-05-24T03:35:12.184Z,48.01
2023-05-24T03:37:39.196Z,47.75
2023-05-24T03:40:06.772Z,47.21
2023-05-24T03:42:33.326Z,47.62
2023-05-24T03:44:59.957Z,47.74
2023-05-24T03:47:26.730Z,47.01
2023-05-24T03:49:53.275Z,46.49
2023-05-24T03:52:19.853Z,46.35
2023-05-24T03:54:46.384Z,46.41
2023-05-24T03:57:13.013Z,46.32
2023-05-24T03:59:41.191Z,46.35
2023-05-24T04:02:08.224Z,46.15
2023-05-24T04:04:34.857Z,46.39
2023-05-24T04:07:01.404Z,47.48
2023-05-24T04:09:27.950Z,46.81
2023-05-24T04:11:54.534Z,47.08
2023-05-24T04:14:21.904Z,47.10
2023-05-24T04:16:48.549Z,48.73
2023-05-24T04:19:15.124Z,47.78
2023-05-24T04:21:41.676Z,46.85
2023-05-24T04:24:08.383Z,45.98
2023-05-24T04:26:35.194Z,46.39
2023-05-24T04:29:01.853Z,45.18
2023-05-24T04:31:30.320Z,44.73
2023-05-24T04:33:58.868Z,45.17
2023-05-24T04:36:26.230Z,44.78
2023-05-24T04:38:57.524Z,45.17
2023-05-24T04:41:24.449Z,45.11
2023-05-24T04:43:51.127Z,44.97
2023-05-24T04:46:17.718Z,44.88
2023-05-24T04:48:44.709Z,44.44
2023-05-24T04:51:11.403Z,44.49
2023-05-24T04:53:38.667Z,45.18
2023-05-24T04:56:05.337Z,44.96
2023-05-24T04:58:31.948Z,44.52
2023-05-24T05:00:58.452Z,44.07
2023-05-24T05:03:24.974Z,44.60
2023-05-24T05:05:51.706Z,45.03
2023-05-24T05:08:18.311Z,44.26
2023-05-24T05:10:44.867Z,44.00
2023-05-24T05:13:11.498Z,44.22
2023-05-24T05:15:38.106Z,43.86
2023-05-24T05:18:04.673Z,43.97
2023-05-24T05:20:31.448Z,43.35
2023-05-24T05:22:58.071Z,43.56
2023-05-24T05:25:24.710Z,44.62
2023-05-24T05:27:51.286Z,44.65
2023-05-24T05:30:18.093Z,44.50
2023-05-24T05:32:44.780Z,44.72
2023-05-24T05:35:11.380Z,44.32
2023-05-24T05:37:37.921Z,44.34
2023-05-24T05:40:04.755Z,44.21
2023-05-24T05:42:31.292Z,43.67
2023-05-24T05:44:57.919Z,42.38
2023-05-24T05:47:24.550Z,40.32
2023-05-24T05:49:51.170Z,38.95
2023-05-24T05:52:17.754Z,38.75
2023-05-24T05:54:47.256Z,39.72
2023-05-24T05:57:13.797Z,39.00
2023-05-24T05:59:40.469Z,37.05
2023-05-24T06:02:07.528Z,36.29
2023-05-24T06:04:34.601Z,35.13
2023-05-24T06:07:01.439Z,34.40
2023-05-24T06:09:28.014Z,35.36
2023-05-24T06:11:54.680Z,36.85
2023-05-24T06:14:25.383Z,36.88
2023-05-24T06:16:54.594Z,35.14
2023-05-24T06:19:21.796Z,32.18
2023-05-24T06:21:49.521Z,31.26
2023-05-24T06:24:22.274Z,30.52
2023-05-24T06:26:50.327Z,32.01
2023-05-24T06:29:19.677Z,32.14
2023-05-24T06:31:47.641Z,34.80
2023-05-24T06:34:17.757Z,36.18
2023-05-24T06:36:47.265Z,36.36
2023-05-24T06:39:14.728Z,34.86
2023-05-24T06:41:42.284Z,33.80
2023-05-24T06:44:09.290Z,33.65
2023-05-24T06:46:36.068Z,31.33
2023-05-24T06:49:03.352Z,33.90
2023-05-24T06:51:30.883Z,33.60
2023-05-24T06:53:57.860Z,33.97
2023-05-24T06:56:24.474Z,33.01
2023-05-24T06:58:51.147Z,32.10
2023-05-24T07:01:18.686Z,34.13
2023-05-24T07:03:45.371Z,32.65
2023-05-24T07:06:14.184Z,32.06
2023-05-24T07:08:44.280Z,32.28
2023-05-24T07:11:10.964Z,31.62
2023-05-24T07:13:37.520Z,29.83
2023-05-24T07:16:04.222Z,29.73
2023-05-24T07:18:31.175Z,28.55
2023-05-24T07:20:57.850Z,27.12
2023-05-24T07:23:24.586Z,29.94
2023-05-24T07:25:51.274Z,34.02
2023-05-24T07:28:20.195Z,32.27
2023-05-24T07:30:46.952Z,34.31
2023-05-24T07:33:13.800Z,32.32
2023-05-24T07:35:40.629Z,32.22
2023-05-24T07:38:07.700Z,31.86
2023-05-24T07:40:34.948Z,33.71
2023-05-24T07:43:02.263Z,34.42
2023-05-24T07:45:31.284Z,33.01
2023-05-24T07:47:57.895Z,33.60
2023-05-24T07:50:25.055Z,32.55
2023-05-24T07:52:51.685Z,32.78
2023-05-24T07:57:15.031Z,31.50
2023-05-24T07:59:41.607Z,30.51
2023-05-24T08:02:11.281Z,31.75
2023-05-24T08:04:38.236Z,33.48
2023-05-24T08:07:06.227Z,33.29
2023-05-24T08:11:16.443Z,34.84
2023-05-24T08:14:09.779Z,33.33
2023-05-24T08:16:36.487Z,34.79
2023-05-24T08:48:30.026Z,36.51
2023-05-24T08:50:57.956Z,35.28
2023-05-24T08:53:24.964Z,34.44
2023-05-24T08:55:55.947Z,33.35
2023-05-24T08:58:23.153Z,32.89
2023-05-24T09:00:49.824Z,32.83
2023-05-24T09:03:17.076Z,35.97
2023-05-24T09:05:45.418Z,34.96
2023-05-24T09:08:13.522Z,35.65
2023-05-24T09:10:53.319Z,34.94
2023-05-24T09:13:23.648Z,36.45
2023-05-24T09:15:50.321Z,37.29
2023-05-24T09:18:16.963Z,37.43
2023-05-24T09:20:43.893Z,37.23
2023-05-24T09:23:11.517Z,39.30
2023-05-24T09:25:43.912Z,40.10
2023-05-24T09:28:13.275Z,39.91
2023-05-24T09:30:39.969Z,40.71
2023-05-24T09:33:08.351Z,39.06
2023-05-24T09:35:36.935Z,37.58
2023-05-24T09:38:04.038Z,36.23
2023-05-24T09:40:30.804Z,38.66
2023-05-24T09:43:09.176Z,40.28
2023-05-24T09:45:46.809Z,40.55
2023-05-24T09:48:14.307Z,39.67
2023-05-24T09:50:41.373Z,40.55
2023-05-24T09:53:08.444Z,40.02
2023-05-24T09:55:38.253Z,42.12
2023-05-24T09:58:09.097Z,41.78
2023-05-24T10:00:40.282Z,43.20
2023-05-24T10:03:08.747Z,43.51
2023-05-24T10:05:35.919Z,43.11
2023-05-24T10:08:05.072Z,42.99
2023-05-24T10:10:33.382Z,43.19
2023-05-24T10:13:01.628Z,42.49
2023-05-24T10:15:29.737Z,42.21
2023-05-24T10:17:57.177Z,43.67
2023-05-24T10:20:24.669Z,43.16
2023-05-24T10:23:02.067Z,42.35
2023-05-24T10:25:29.870Z,42.88
2023-05-24T10:27:59.569Z,41.85
2023-05-24T10:30:34.496Z,41.96
2023-05-24T10:33:01.947Z,42.52
2023-05-24T10:35:29.605Z,42.52
2023-05-24T10:37:57.425Z,42.20
2023-05-24T10:40:27.427Z,43.01
2023-05-24T10:42:54.826Z,43.87
2023-05-24T10:45:27.428Z,42.42
2023-05-24T10:47:54.669Z,43.34
2023-05-24T10:50:22.294Z,43.39
2023-05-24T10:52:49.369Z,44.32
2023-05-24T10:55:16.118Z,43.49
2023-05-24T10:57:42.693Z,44.12
2023-05-24T11:00:33.864Z,43.20
2023-05-24T11:03:11.761Z,43.01
2023-05-24T11:05:58.916Z,42.63
2023-05-24T11:08:36.379Z,43.03
2023-05-24T11:13:44.254Z,42.51
2023-05-24T11:16:38.191Z,41.90
2023-05-24T11:19:17.687Z,42.60
2023-05-24T11:21:46.110Z,44.49
2023-05-24T11:24:12.914Z,43.15
2023-05-24T11:26:40.190Z,43.26
2023-05-24T11:29:07.738Z,42.19
2023-05-24T11:31:37.010Z,42.22
2023-05-24T11:34:06.847Z,42.42
2023-05-24T11:36:33.864Z,43.72
2023-05-24T11:39:01.478Z,42.81
2023-05-24T11:41:28.825Z,42.37
2023-05-24T11:43:55.771Z,41.64
2023-05-24T11:46:22.612Z,42.61
2023-05-24T11:48:57.293Z,42.00
2023-05-24T11:51:28.262Z,40.98
2023-05-24T11:53:56.161Z,41.12
2023-05-24T11:56:23.316Z,39.41
2023-05-24T11:58:53.380Z,39.35
2023-05-24T12:01:27.478Z,40.08
2023-05-24T12:03:55.180Z,38.69
2023-05-24T12:06:22.855Z,39.69
2023-05-24T12:08:49.883Z,39.57
2023-05-24T12:11:17.281Z,39.71
2023-05-24T12:13:44.008Z,39.50
2023-05-24T12:16:12.052Z,39.57
2023-05-24T12:18:45.840Z,39.21
2023-05-24T12:21:20.256Z,38.64
2023-05-24T12:23:48.295Z,38.20
2023-05-24T12:26:18.951Z,38.13
2023-05-24T12:28:45.778Z,37.09
2023-05-24T12:31:12.449Z,36.11
2023-05-24T12:33:39.723Z,37.76
2023-05-24T12:36:07.890Z,37.26
2023-05-24T12:38:34.465Z,38.85
2023-05-24T12:41:12.417Z,39.40
2023-05-24T12:43:40.932Z,38.47
2023-05-24T12:46:07.718Z,39.94
2023-05-24T12:48:34.422Z,37.54
2023-05-24T12:51:02.237Z,38.14
2023-05-24T12:53:28.957Z,37.11
2023-05-24T12:55:56.325Z,37.39
2023-05-24T12:58:22.969Z,38.23
2023-05-24T13:00:51.514Z,38.59
2023-05-24T13:03:18.498Z,37.48
2023-05-24T13:05:46.151Z,37.35
2023-05-24T13:08:13.598Z,37.87
2023-05-24T13:13:12.164Z,38.22
2023-05-24T13:15:39.284Z,39.60
2023-05-24T13:18:06.248Z,40.73
2023-05-24T13:20:33.415Z,41.13
2023-05-24T13:23:00.041Z,39.79
2023-05-24T13:25:27.210Z,38.47
2023-05-24T13:27:53.889Z,38.80
2023-05-24T13:30:27.479Z,39.40
2023-05-24T13:32:58.866Z,39.23
2023-05-24T13:35:25.558Z,39.67
2023-05-24T13:37:54.226Z,38.82
2023-05-24T13:40:21.015Z,39.33
2023-05-24T13:42:47.786Z,39.88
2023-05-24T13:45:14.707Z,40.30
2023-05-24T13:47:41.748Z,40.69
2023-05-24T13:50:08.911Z,40.78
2023-05-24T13:52:35.476Z,41.04
2023-05-24T13:55:04.864Z,41.01
2023-05-24T13:57:43.455Z,40.33
2023-05-24T14:00:18.208Z,37.93
2023-05-24T14:02:44.905Z,35.70
2023-05-24T14:05:25.933Z,35.58
2023-05-24T14:07:54.719Z,36.07
2023-05-24T14:10:21.865Z,37.84
2023-05-24T14:12:59.391Z,40.62
2023-05-24T14:15:35.216Z,38.20
2023-05-24T14:18:07.513Z,40.29
2023-05-24T14:20:36.927Z,39.33
2023-05-24T14:23:04.459Z,40.97
2023-05-24T14:25:31.854Z,41.70
2023-05-24T14:27:59.116Z,43.01
2023-05-24T14:30:28.742Z,43.17
2023-05-24T14:32:55.327Z,44.06
2023-05-24T14:35:22.120Z,46.32
2023-05-24T14:37:48.698Z,45.64
2023-05-24T14:40:17.583Z,45.58
2023-05-24T14:42:45.830Z,45.15
2023-05-24T14:45:12.738Z,42.18
2023-05-24T14:47:39.357Z,41.37
2023-05-24T14:50:06.697Z,41.19
2023-05-24T14:52:33.280Z,41.61
2023-05-24T14:54:59.986Z,41.29
2023-05-24T14:57:26.522Z,40.96
2023-05-24T14:59:53.076Z,41.30
2023-05-24T15:02:19.613Z,41.28
2023-05-24T15:04:46.230Z,42.02
2023-05-24T15:07:12.867Z,41.58
2023-05-24T15:09:39.397Z,41.68
2023-05-24T15:12:07.693Z,42.66
2023-05-24T15:14:34.498Z,42.06
2023-05-24T15:17:01.137Z,42.20
2023-05-24T15:19:27.960Z,43.07
2023-05-24T15:21:54.640Z,42.14
2023-05-24T15:24:21.260Z,39.52
2023-05-24T15:26:48.386Z,41.19
2023-05-24T15:29:15.008Z,44.29
2023-05-24T15:31:41.680Z,52.65
2023-05-24T15:34:08.415Z,54.24
2023-05-24T15:36:34.940Z,55.85
2023-05-24T15:39:01.552Z,57.65
2023-05-24T15:41:28.378Z,58.61
2023-05-24T15:43:54.994Z,58.51
2023-05-24T15:46:21.962Z,58.50
2023-05-24T15:48:48.848Z,58.54
2023-05-24T15:53:45.611Z,59.64
2023-05-24T15:56:12.736Z,59.69
2023-05-24T15:58:39.356Z,60.22
2023-05-24T16:01:06.052Z,60.80
2023-05-24T16:03:32.772Z,60.18
2023-05-24T16:05:59.513Z,60.91
2023-05-24T16:08:27.972Z,61.15
2023-05-24T16:10:55.327Z,61.37
2023-05-24T16:13:21.980Z,61.96
2023-05-24T16:15:51.829Z,62.07
2023-05-24T16:18:21.445Z,61.92
2023-05-24T16:20:51.665Z,62.25
2023-05-24T16:23:19.338Z,62.41
2023-05-24T16:25:49.461Z,62.55
2023-05-24T16:28:15.997Z,62.29
2023-05-24T16:30:42.764Z,61.89
2023-05-24T16:33:09.566Z,62.54
2023-05-24T16:35:36.346Z,61.66
2023-05-24T16:38:02.946Z,61.53
2023-05-24T16:40:29.581Z,62.16
2023-05-24T16:42:56.186Z,62.56
2023-05-24T16:45:22.856Z,62.99
2023-05-24T16:47:49.484Z,62.41
2023-05-24T16:50:16.324Z,62.51
2023-05-24T16:52:43.472Z,62.80
2023-05-24T16:55:11.405Z,63.40
2023-05-24T16:57:38.391Z,62.72
2023-05-24T17:00:06.056Z,62.58
2023-05-24T17:02:33.978Z,62.75
2023-05-24T17:05:00.952Z,63.59
2023-05-24T17:07:27.905Z,63.66
2023-05-24T17:09:54.541Z,64.08
2023-05-24T17:12:21.752Z,63.68
2023-05-24T17:14:48.391Z,63.76
2023-05-24T17:17:14.970Z,64.35
2023-05-24T17:19:41.523Z,64.12
2023-05-24T17:22:08.715Z,64.24
2023-05-24T17:24:35.376Z,64.89
2023-05-24T17:27:02.685Z,64.92
2023-05-24T17:29:30.079Z,65.24
2023-05-24T17:31:56.730Z,65.31
2023-05-24T17:34:23.308Z,65.27
2023-05-24T17:36:49.831Z,65.21
2023-05-24T17:39:17.445Z,65.52
2023-05-24T17:41:44.557Z,66.06
2023-05-24T17:44:11.212Z,65.46
2023-05-24T17:46:40.542Z,65.51
2023-05-24T17:49:08.051Z,66.40
2023-05-24T17:51:35.068Z,66.24
2023-05-24T17:54:01.619Z,66.47
2023-05-24T17:56:29.098Z,66.59
2023-05-24T17:58:55.747Z,66.63
2023-05-24T18:01:22.546Z,67.09
2023-05-24T18:03:49.090Z,67.17
2023-05-24T18:06:15.681Z,67.61
2023-05-24T18:08:43.930Z,67.53
2023-05-24T18:11:12.636Z,67.74
2023-05-24T18:13:40.493Z,67.92
2023-05-24T18:16:08.211Z,68.24
2023-05-24T18:18:34.800Z,68.75
2023-05-24T18:21:01.482Z,68.84
2023-05-24T18:23:28.259Z,69.36
2023-05-24T18:26:00.679Z,69.79
2023-05-24T18:28:28.991Z,69.70
2023-05-24T18:30:56.340Z,70.01
2023-05-24T18:33:23.057Z,70.67
2023-05-24T18:35:49.652Z,70.51
2023-05-24T18:38:16.237Z,70.54
2023-05-24T18:40:42.840Z,70.49
2023-05-24T18:43:09.338Z,71.38
2023-05-24T18:45:35.926Z,71.30
2023-05-24T18:48:02.486Z,71.27
2023-05-24T18:50:29.022Z,71.41
2023-05-24T18:52:55.949Z,71.38
2023-05-24T18:55:22.448Z,71.79
2023-05-24T18:57:49.199Z,72.19
2023-05-24T19:00:19.356Z,72.93
2023-05-24T19:02:46.108Z,73.05
2023-05-24T19:05:12.738Z,73.18
2023-05-24T19:08:53.673Z,73.59
2023-05-24T19:11:20.214Z,73.66
2023-05-24T19:13:46.777Z,74.13
2023-05-24T19:16:17.510Z,74.01
2023-05-24T19:18:44.977Z,74.21
2023-05-24T19:21:12.273Z,74.19
2023-05-24T19:23:40.486Z,74.29
2023-05-24T19:26:07.097Z,74.69
2023-05-24T19:28:37.650Z,74.71
2023-05-24T19:31:04.428Z,75.28
2023-05-24T19:33:30.972Z,75.66
2023-05-24T19:35:57.465Z,75.59
2023-05-24T19:38:23.981Z,75.86
2023-05-24T19:40:50.529Z,75.81
2023-05-24T19:43:17.010Z,76.09
2023-05-24T19:45:43.870Z,75.93
2023-05-24T19:48:10.593Z,76.12
2023-05-24T19:50:39.265Z,76.25
2023-05-24T19:53:05.969Z,76.16
2023-05-24T19:55:32.593Z,76.69
2023-05-24T19:57:59.092Z,77.21
2023-05-24T20:00:25.726Z,77.35
2023-05-24T20:02:52.316Z,77.27
2023-05-24T20:05:18.970Z,77.23
2023-05-24T20:07:45.760Z,77.38
2023-05-24T20:10:12.884Z,77.74
2023-05-24T20:12:39.598Z,77.96
2023-05-24T20:15:09.819Z,77.96
2023-05-24T20:17:36.354Z,77.84
2023-05-24T20:20:04.262Z,78.13
2023-05-24T20:22:31.121Z,78.10
2023-05-24T20:24:57.593Z,78.54
2023-05-24T20:27:24.086Z,78.26
2023-05-24T20:29:51.066Z,78.34
2023-05-24T20:32:17.623Z,78.53
2023-05-24T20:34:44.169Z,78.56
2023-05-24T20:37:10.830Z,78.97
2023-05-24T20:39:37.353Z,78.68
2023-05-24T20:42:04.104Z,78.63
2023-05-24T20:44:32.577Z,79.22
2023-05-24T20:46:59.424Z,79.33
2023-05-24T20:49:26.128Z,79.06
2023-05-24T20:51:52.838Z,79.07
2023-05-24T20:54:19.477Z,79.40
2023-05-24T20:56:46.361Z,78.94
2023-05-24T20:59:13.243Z,79.51
2023-05-24T21:01:40.017Z,79.34
2023-05-24T21:04:06.629Z,79.37
2023-05-24T21:06:34.288Z,79.63
2023-05-24T21:09:01.831Z,79.58
2023-05-24T21:11:28.554Z,79.59
2023-05-24T21:13:56.796Z,79.65
2023-05-24T21:16:23.819Z,80.03
2023-05-24T21:18:53.656Z,80.01
2023-05-24T21:21:20.276Z,79.77
2023-05-24T21:23:46.805Z,79.84
2023-05-24T21:26:13.341Z,79.45
2023-05-24T21:28:39.863Z,80.28
2023-05-24T21:31:07.030Z,79.77
2023-05-24T21:33:33.551Z,80.38
2023-05-24T21:36:00.126Z,80.15
2023-05-24T21:38:26.596Z,80.44
2023-05-24T21:40:53.085Z,79.93
2023-05-24T21:43:19.623Z,80.51
2023-05-24T21:45:46.186Z,80.43
2023-05-24T21:48:12.706Z,80.45
2023-05-24T21:50:39.250Z,80.50
2023-05-24T21:53:05.853Z,80.59
2023-05-24T21:55:32.382Z,80.31
2023-05-24T21:57:58.899Z,80.57
2023-05-24T22:00:26.907Z,81.41
2023-05-24T22:02:53.518Z,81.27
2023-05-24T22:05:20.327Z,81.50
2023-05-24T22:07:46.915Z,81.85
2023-05-24T22:10:13.515Z,82.13
2023-05-24T22:12:40.133Z,81.82
2023-05-24T22:15:07.241Z,81.88
2023-05-24T22:17:36.769Z,81.82
2023-05-24T22:20:06.081Z,81.86
2023-05-24T22:22:32.774Z,81.87
2023-05-24T22:25:01.929Z,82.75
2023-05-24T22:27:29.021Z,83.02
2023-05-24T22:29:56.049Z,82.60
2023-05-24T22:32:22.773Z,82.68
2023-05-24T22:34:49.352Z,82.61
2023-05-24T22:37:16.854Z,82.85
2023-05-24T22:39:45.080Z,82.92
2023-05-24T22:42:11.810Z,83.57
2023-05-24T22:44:38.343Z,83.55
2023-05-24T22:47:05.007Z,83.99
2023-05-24T22:49:33.919Z,83.59
2023-05-24T22:52:01.001Z,83.59
2023-05-24T22:54:27.592Z,84.12
2023-05-24T22:56:54.114Z,83.81
2023-05-24T22:59:20.913Z,84.15
2023-05-24T23:01:47.588Z,84.42
2023-05-24T23:04:20.489Z,84.62
2023-05-24T23:06:52.141Z,84.58
2023-05-24T23:09:28.829Z,84.55
2023-05-24T23:11:58.134Z,85.23
2023-05-24T23:14:24.954Z,84.97
2023-05-24T23:16:51.576Z,85.24
2023-05-24T23:19:18.490Z,85.36
2023-05-24T23:21:45.402Z,85.68
2023-05-24T23:24:14.483Z,85.79
2023-05-24T23:26:41.873Z,86.16
2023-05-24T23:29:08.645Z,85.55
2023-05-24T23:31:35.750Z,86.03
2023-05-24T23:34:02.314Z,86.28
2023-05-24T23:36:28.835Z,86.11
2023-05-24T23:38:55.349Z,86.44
2023-05-24T23:41:21.939Z,86.72
2023-05-24T23:43:48.576Z,87.06
2023-05-24T23:46:17.152Z,87.30
2023-05-24T23:48:43.764Z,87.24
2023-05-24T23:51:10.986Z,87.64
2023-05-24T23:53:37.523Z,87.50
2023-05-24T23:56:04.252Z,87.43
2023-05-24T23:58:31.899Z,87.71
